sensor_id;sensor_type;location;lat;lon;timestamp;pressure;altitude;pressure_sealevel;temperature
74533;BMP180;63012;51.096;-115.366;2022-12-18T00:01:33;86954.80;;;-16.18
74533;BMP180;63012;51.096;-115.366;2022-12-18T00:04:03;86942.00;;;-16.20
74533;BMP180;63012;51.096;-115.366;2022-12-18T00:06:32;86948.60;;;-16.20
74533;BMP180;63012;51.096;-115.366;2022-12-18T00:09:00;86945.60;;;-16.30
74533;BMP180;63012;51.096;-115.366;2022-12-18T00:11:31;86941.60;;;-16.30
74533;BMP180;63012;51.096;-115.366;2022-12-18T00:14:00;86952.80;;;-16.30
74533;BMP180;63012;51.096;-115.366;2022-12-18T00:16:29;86949.00;;;-16.38
74533;BMP180;63012;51.096;-115.366;2022-12-18T00:19:02;86946.40;;;-16.40
74533;BMP180;63012;51.096;-115.366;2022-12-18T00:21:31;86945.20;;;-16.40
74533;BMP180;63012;51.096;-115.366;2022-12-18T00:23:59;86958.60;;;-16.50
74533;BMP180;63012;51.096;-115.366;2022-12-18T00:26:31;86968.00;;;-16.54
74533;BMP180;63012;51.096;-115.366;2022-12-18T00:29:02;86964.20;;;-16.60
74533;BMP180;63012;51.096;-115.366;2022-12-18T00:31:29;86961.20;;;-16.70
74533;BMP180;63012;51.096;-115.366;2022-12-18T00:33:58;86968.20;;;-16.70
74533;BMP180;63012;51.096;-115.366;2022-12-18T00:36:29;86960.40;;;-16.80
74533;BMP180;63012;51.096;-115.366;2022-12-18T00:38:58;86968.80;;;-16.80
74533;BMP180;63012;51.096;-115.366;2022-12-18T00:41:27;86971.60;;;-16.80
74533;BMP180;63012;51.096;-115.366;2022-12-18T00:44:15;86966.20;;;-16.86
74533;BMP180;63012;51.096;-115.366;2022-12-18T00:46:44;86973.00;;;-16.88
74533;BMP180;63012;51.096;-115.366;2022-12-18T00:49:11;86972.20;;;-16.90
74533;BMP180;63012;51.096;-115.366;2022-12-18T00:51:39;86968.00;;;-16.90
74533;BMP180;63012;51.096;-115.366;2022-12-18T00:54:06;86973.40;;;-16.90
74533;BMP180;63012;51.096;-115.366;2022-12-18T00:56:35;86982.80;;;-16.88
74533;BMP180;63012;51.096;-115.366;2022-12-18T00:59:04;86972.00;;;-16.90
74533;BMP180;63012;51.096;-115.366;2022-12-18T01:01:31;86975.60;;;-16.90
74533;BMP180;63012;51.096;-115.366;2022-12-18T01:04:01;86975.80;;;-16.86
74533;BMP180;63012;51.096;-115.366;2022-12-18T01:06:29;86974.00;;;-16.80
74533;BMP180;63012;51.096;-115.366;2022-12-18T01:08:57;86967.00;;;-16.80
74533;BMP180;63012;51.096;-115.366;2022-12-18T01:11:24;86976.00;;;-16.80
74533;BMP180;63012;51.096;-115.366;2022-12-18T01:13:53;86975.00;;;-16.80
74533;BMP180;63012;51.096;-115.366;2022-12-18T01:16:21;86974.20;;;-16.80
74533;BMP180;63012;51.096;-115.366;2022-12-18T01:18:53;86972.40;;;-16.82
74533;BMP180;63012;51.096;-115.366;2022-12-18T01:21:22;86977.20;;;-16.80
74533;BMP180;63012;51.096;-115.366;2022-12-18T01:23:54;86974.80;;;-16.84
74533;BMP180;63012;51.096;-115.366;2022-12-18T01:26:22;86970.40;;;-16.90
74533;BMP180;63012;51.096;-115.366;2022-12-18T01:28:49;86976.00;;;-16.90
74533;BMP180;63012;51.096;-115.366;2022-12-18T01:31:24;86977.80;;;-16.92
74533;BMP180;63012;51.096;-115.366;2022-12-18T01:33:53;86982.40;;;-16.98
74533;BMP180;63012;51.096;-115.366;2022-12-18T01:36:32;86980.00;;;-17.00
74533;BMP180;63012;51.096;-115.366;2022-12-18T01:39:10;86981.60;;;-17.08
74533;BMP180;63012;51.096;-115.366;2022-12-18T01:41:39;86991.40;;;-17.10
74533;BMP180;63012;51.096;-115.366;2022-12-18T01:45:44;86982.40;;;-17.12
74533;BMP180;63012;51.096;-115.366;2022-12-18T01:48:04;86994.20;;;-17.20
74533;BMP180;63012;51.096;-115.366;2022-12-18T01:50:41;86992.20;;;-17.20
74533;BMP180;63012;51.096;-115.366;2022-12-18T01:53:15;87001.60;;;-17.20
74533;BMP180;63012;51.096;-115.366;2022-12-18T01:55:49;86998.20;;;-17.30
74533;BMP180;63012;51.096;-115.366;2022-12-18T01:58:19;86997.80;;;-17.30
74533;BMP180;63012;51.096;-115.366;2022-12-18T02:00:47;87007.60;;;-17.34
74533;BMP180;63012;51.096;-115.366;2022-12-18T02:03:14;86996.80;;;-17.40
74533;BMP180;63012;51.096;-115.366;2022-12-18T02:06:07;87012.20;;;-17.40
74533;BMP180;63012;51.096;-115.366;2022-12-18T02:14:30;87016.80;;;-17.50
74533;BMP180;63012;51.096;-115.366;2022-12-18T02:17:18;87015.20;;;-17.50
74533;BMP180;63012;51.096;-115.366;2022-12-18T02:20:15;87022.60;;;-17.50
74533;BMP180;63012;51.096;-115.366;2022-12-18T02:26:12;87017.40;;;-17.60
74533;BMP180;63012;51.096;-115.366;2022-12-18T02:28:56;87022.20;;;-17.50
74533;BMP180;63012;51.096;-115.366;2022-12-18T02:31:31;87019.20;;;-17.54
74533;BMP180;63012;51.096;-115.366;2022-12-18T02:34:05;87020.20;;;-17.60
74533;BMP180;63012;51.096;-115.366;2022-12-18T02:36:38;87022.60;;;-17.60
74533;BMP180;63012;51.096;-115.366;2022-12-18T02:39:09;87021.20;;;-17.60
74533;BMP180;63012;51.096;-115.366;2022-12-18T02:41:38;87032.80;;;-17.60
74533;BMP180;63012;51.096;-115.366;2022-12-18T02:44:12;87028.80;;;-17.70
74533;BMP180;63012;51.096;-115.366;2022-12-18T02:46:50;87032.20;;;-17.70
74533;BMP180;63012;51.096;-115.366;2022-12-18T02:49:55;87032.60;;;-17.70
74533;BMP180;63012;51.096;-115.366;2022-12-18T02:53:45;87032.00;;;-17.72
74533;BMP180;63012;51.096;-115.366;2022-12-18T02:56:41;87026.80;;;-17.80
74533;BMP180;63012;51.096;-115.366;2022-12-18T02:59:22;87031.40;;;-17.90
74533;BMP180;63012;51.096;-115.366;2022-12-18T03:03:12;87030.00;;;-17.90
74533;BMP180;63012;51.096;-115.366;2022-12-18T03:05:23;87033.80;;;-17.90
74533;BMP180;63012;51.096;-115.366;2022-12-18T03:08:06;87026.00;;;-17.90
74533;BMP180;63012;51.096;-115.366;2022-12-18T03:10:49;87029.80;;;-17.90
74533;BMP180;63012;51.096;-115.366;2022-12-18T03:13:55;87037.60;;;-17.90
74533;BMP180;63012;51.096;-115.366;2022-12-18T03:16:28;87042.80;;;-17.98
74533;BMP180;63012;51.096;-115.366;2022-12-18T03:19:24;87042.00;;;-18.00
74533;BMP180;63012;51.096;-115.366;2022-12-18T03:21:57;87053.60;;;-18.00
74533;BMP180;63012;51.096;-115.366;2022-12-18T03:24:29;87055.40;;;-18.00
74533;BMP180;63012;51.096;-115.366;2022-12-18T03:27:02;87065.80;;;-18.08
74533;BMP180;63012;51.096;-115.366;2022-12-18T03:32:29;87054.60;;;-18.10
74533;BMP180;63012;51.096;-115.366;2022-12-18T03:35:03;87069.40;;;-18.10
74533;BMP180;63012;51.096;-115.366;2022-12-18T03:37:32;87051.60;;;-18.14
74533;BMP180;63012;51.096;-115.366;2022-12-18T03:39:59;87064.00;;;-18.14
74533;BMP180;63012;51.096;-115.366;2022-12-18T03:42:32;87065.80;;;-18.10
74533;BMP180;63012;51.096;-115.366;2022-12-18T03:45:24;87067.80;;;-18.10
74533;BMP180;63012;51.096;-115.366;2022-12-18T03:56:15;87069.20;;;-18.20
74533;BMP180;63012;51.096;-115.366;2022-12-18T03:58:46;87061.40;;;-18.20
74533;BMP180;63012;51.096;-115.366;2022-12-18T04:01:16;87063.60;;;-18.20
74533;BMP180;63012;51.096;-115.366;2022-12-18T04:03:49;87058.00;;;-18.20
74533;BMP180;63012;51.096;-115.366;2022-12-18T04:06:17;87072.60;;;-18.20
74533;BMP180;63012;51.096;-115.366;2022-12-18T04:08:46;87068.00;;;-18.20
74533;BMP180;63012;51.096;-115.366;2022-12-18T04:11:16;87064.00;;;-18.20
74533;BMP180;63012;51.096;-115.366;2022-12-18T04:13:43;87076.20;;;-18.10
74533;BMP180;63012;51.096;-115.366;2022-12-18T04:16:10;87068.20;;;-18.10
74533;BMP180;63012;51.096;-115.366;2022-12-18T04:18:38;87066.80;;;-18.10
74533;BMP180;63012;51.096;-115.366;2022-12-18T04:21:05;87060.60;;;-18.00
74533;BMP180;63012;51.096;-115.366;2022-12-18T04:23:32;87061.00;;;-18.00
74533;BMP180;63012;51.096;-115.366;2022-12-18T04:25:59;87062.80;;;-17.90
74533;BMP180;63012;51.096;-115.366;2022-12-18T04:28:26;87063.40;;;-17.90
74533;BMP180;63012;51.096;-115.366;2022-12-18T04:30:53;87068.00;;;-17.90
74533;BMP180;63012;51.096;-115.366;2022-12-18T04:33:20;87060.80;;;-17.90
74533;BMP180;63012;51.096;-115.366;2022-12-18T04:35:47;87070.00;;;-17.88
74533;BMP180;63012;51.096;-115.366;2022-12-18T04:38:14;87069.20;;;-17.90
74533;BMP180;63012;51.096;-115.366;2022-12-18T04:40:42;87074.80;;;-17.90
74533;BMP180;63012;51.096;-115.366;2022-12-18T04:43:09;87067.20;;;-18.00
74533;BMP180;63012;51.096;-115.366;2022-12-18T04:45:37;87072.80;;;-18.00
74533;BMP180;63012;51.096;-115.366;2022-12-18T04:48:05;87061.40;;;-18.00
74533;BMP180;63012;51.096;-115.366;2022-12-18T04:50:32;87061.40;;;-18.00
74533;BMP180;63012;51.096;-115.366;2022-12-18T04:52:59;87065.20;;;-18.00
74533;BMP180;63012;51.096;-115.366;2022-12-18T04:55:27;87068.80;;;-17.90
74533;BMP180;63012;51.096;-115.366;2022-12-18T04:57:54;87061.40;;;-17.90
74533;BMP180;63012;51.096;-115.366;2022-12-18T05:00:22;87063.80;;;-17.96
74533;BMP180;63012;51.096;-115.366;2022-12-18T05:02:49;87073.00;;;-17.94
74533;BMP180;63012;51.096;-115.366;2022-12-18T05:05:17;87076.20;;;-17.90
74533;BMP180;63012;51.096;-115.366;2022-12-18T05:07:44;87067.80;;;-18.00
74533;BMP180;63012;51.096;-115.366;2022-12-18T05:10:11;87062.60;;;-18.00
74533;BMP180;63012;51.096;-115.366;2022-12-18T05:12:38;87071.00;;;-18.00
74533;BMP180;63012;51.096;-115.366;2022-12-18T05:15:28;87070.80;;;-18.02
74533;BMP180;63012;51.096;-115.366;2022-12-18T05:17:56;87065.40;;;-18.10
74533;BMP180;63012;51.096;-115.366;2022-12-18T05:20:24;87074.40;;;-18.10
74533;BMP180;63012;51.096;-115.366;2022-12-18T05:22:51;87073.60;;;-18.20
74533;BMP180;63012;51.096;-115.366;2022-12-18T05:25:20;87070.80;;;-18.20
74533;BMP180;63012;51.096;-115.366;2022-12-18T05:27:47;87077.80;;;-18.30
74533;BMP180;63012;51.096;-115.366;2022-12-18T05:30:15;87082.80;;;-18.30
74533;BMP180;63012;51.096;-115.366;2022-12-18T05:32:43;87076.40;;;-18.32
74533;BMP180;63012;51.096;-115.366;2022-12-18T05:35:11;87078.40;;;-18.40
74533;BMP180;63012;51.096;-115.366;2022-12-18T05:37:38;87074.60;;;-18.40
74533;BMP180;63012;51.096;-115.366;2022-12-18T05:40:06;87083.40;;;-18.40
74533;BMP180;63012;51.096;-115.366;2022-12-18T05:42:34;87091.20;;;-18.40
74533;BMP180;63012;51.096;-115.366;2022-12-18T05:45:01;87076.80;;;-18.40
74533;BMP180;63012;51.096;-115.366;2022-12-18T05:47:28;87088.60;;;-18.36
74533;BMP180;63012;51.096;-115.366;2022-12-18T05:49:55;87077.60;;;-18.30
74533;BMP180;63012;51.096;-115.366;2022-12-18T05:52:23;87088.20;;;-18.30
74533;BMP180;63012;51.096;-115.366;2022-12-18T05:54:50;87087.40;;;-18.30
74533;BMP180;63012;51.096;-115.366;2022-12-18T05:57:17;87089.00;;;-18.30
74533;BMP180;63012;51.096;-115.366;2022-12-18T05:59:44;87084.80;;;-18.40
74533;BMP180;63012;51.096;-115.366;2022-12-18T06:02:11;87081.00;;;-18.40
74533;BMP180;63012;51.096;-115.366;2022-12-18T06:04:38;87087.20;;;-18.34
74533;BMP180;63012;51.096;-115.366;2022-12-18T06:07:06;87093.40;;;-18.34
74533;BMP180;63012;51.096;-115.366;2022-12-18T06:09:33;87098.20;;;-18.40
74533;BMP180;63012;51.096;-115.366;2022-12-18T06:11:59;87106.40;;;-18.40
74533;BMP180;63012;51.096;-115.366;2022-12-18T06:14:27;87110.80;;;-18.40
74533;BMP180;63012;51.096;-115.366;2022-12-18T06:16:54;87103.60;;;-18.48
74533;BMP180;63012;51.096;-115.366;2022-12-18T06:19:21;87111.00;;;-18.50
74533;BMP180;63012;51.096;-115.366;2022-12-18T06:21:48;87113.20;;;-18.50
74533;BMP180;63012;51.096;-115.366;2022-12-18T06:24:15;87103.20;;;-18.50
74533;BMP180;63012;51.096;-115.366;2022-12-18T06:26:42;87111.40;;;-18.50
74533;BMP180;63012;51.096;-115.366;2022-12-18T06:29:10;87105.20;;;-18.46
74533;BMP180;63012;51.096;-115.366;2022-12-18T06:31:37;87106.20;;;-18.50
74533;BMP180;63012;51.096;-115.366;2022-12-18T06:34:04;87111.00;;;-18.50
74533;BMP180;63012;51.096;-115.366;2022-12-18T06:36:32;87108.20;;;-18.50
74533;BMP180;63012;51.096;-115.366;2022-12-18T06:38:59;87115.60;;;-18.54
74533;BMP180;63012;51.096;-115.366;2022-12-18T06:41:26;87120.40;;;-18.60
74533;BMP180;63012;51.096;-115.366;2022-12-18T06:43:53;87122.60;;;-18.60
74533;BMP180;63012;51.096;-115.366;2022-12-18T06:46:21;87122.60;;;-18.60
74533;BMP180;63012;51.096;-115.366;2022-12-18T06:48:49;87123.60;;;-18.60
74533;BMP180;63012;51.096;-115.366;2022-12-18T06:51:22;87126.00;;;-18.58
74533;BMP180;63012;51.096;-115.366;2022-12-18T06:53:50;87124.80;;;-18.60
74533;BMP180;63012;51.096;-115.366;2022-12-18T06:56:17;87112.60;;;-18.70
74533;BMP180;63012;51.096;-115.366;2022-12-18T06:58:44;87127.00;;;-18.70
74533;BMP180;63012;51.096;-115.366;2022-12-18T07:01:12;87119.40;;;-18.70
74533;BMP180;63012;51.096;-115.366;2022-12-18T07:03:41;87123.60;;;-18.60
74533;BMP180;63012;51.096;-115.366;2022-12-18T07:06:18;87121.40;;;-18.60
74533;BMP180;63012;51.096;-115.366;2022-12-18T07:08:48;87126.00;;;-18.60
74533;BMP180;63012;51.096;-115.366;2022-12-18T07:11:16;87131.20;;;-18.60
74533;BMP180;63012;51.096;-115.366;2022-12-18T07:13:45;87119.80;;;-18.58
74533;BMP180;63012;51.096;-115.366;2022-12-18T07:16:17;87120.00;;;-18.60
74533;BMP180;63012;51.096;-115.366;2022-12-18T07:18:44;87131.60;;;-18.70
74533;BMP180;63012;51.096;-115.366;2022-12-18T07:21:16;87132.20;;;-18.72
74533;BMP180;63012;51.096;-115.366;2022-12-18T07:23:44;87129.80;;;-18.80
74533;BMP180;63012;51.096;-115.366;2022-12-18T07:26:17;87130.40;;;-18.88
74533;BMP180;63012;51.096;-115.366;2022-12-18T07:28:44;87141.40;;;-18.90
74533;BMP180;63012;51.096;-115.366;2022-12-18T07:31:15;87139.20;;;-18.90
74533;BMP180;63012;51.096;-115.366;2022-12-18T07:33:44;87130.40;;;-18.96
74533;BMP180;63012;51.096;-115.366;2022-12-18T07:36:11;87139.40;;;-19.00
74533;BMP180;63012;51.096;-115.366;2022-12-18T07:38:39;87137.40;;;-19.02
74533;BMP180;63012;51.096;-115.366;2022-12-18T07:41:09;87146.80;;;-19.02
74533;BMP180;63012;51.096;-115.366;2022-12-18T07:43:38;87141.20;;;-19.00
74533;BMP180;63012;51.096;-115.366;2022-12-18T07:46:06;87145.40;;;-19.00
74533;BMP180;63012;51.096;-115.366;2022-12-18T07:48:33;87140.40;;;-19.06
74533;BMP180;63012;51.096;-115.366;2022-12-18T07:51:02;87136.80;;;-19.10
74533;BMP180;63012;51.096;-115.366;2022-12-18T07:53:31;87144.60;;;-19.06
74533;BMP180;63012;51.096;-115.366;2022-12-18T07:56:00;87145.40;;;-19.08
74533;BMP180;63012;51.096;-115.366;2022-12-18T07:58:29;87147.60;;;-19.10
74533;BMP180;63012;51.096;-115.366;2022-12-18T08:01:10;87142.00;;;-19.10
74533;BMP180;63012;51.096;-115.366;2022-12-18T08:03:39;87156.40;;;-19.10
74533;BMP180;63012;51.096;-115.366;2022-12-18T08:06:09;87140.20;;;-19.10
74533;BMP180;63012;51.096;-115.366;2022-12-18T08:08:37;87151.20;;;-19.10
74533;BMP180;63012;51.096;-115.366;2022-12-18T08:11:04;87145.80;;;-19.12
74533;BMP180;63012;51.096;-115.366;2022-12-18T08:13:34;87140.40;;;-19.10
74533;BMP180;63012;51.096;-115.366;2022-12-18T08:16:08;87143.20;;;-19.10
74533;BMP180;63012;51.096;-115.366;2022-12-18T08:18:37;87138.80;;;-19.10
74533;BMP180;63012;51.096;-115.366;2022-12-18T08:21:21;87141.60;;;-19.10
74533;BMP180;63012;51.096;-115.366;2022-12-18T08:23:50;87134.80;;;-19.10
74533;BMP180;63012;51.096;-115.366;2022-12-18T08:26:19;87134.60;;;-19.10
74533;BMP180;63012;51.096;-115.366;2022-12-18T08:28:47;87127.00;;;-19.10
74533;BMP180;63012;51.096;-115.366;2022-12-18T08:31:15;87126.40;;;-19.10
74533;BMP180;63012;51.096;-115.366;2022-12-18T08:33:42;87126.00;;;-19.12
74533;BMP180;63012;51.096;-115.366;2022-12-18T08:36:11;87131.60;;;-19.12
74533;BMP180;63012;51.096;-115.366;2022-12-18T08:38:38;87130.60;;;-19.20
74533;BMP180;63012;51.096;-115.366;2022-12-18T08:41:10;87132.60;;;-19.26
74533;BMP180;63012;51.096;-115.366;2022-12-18T08:43:37;87132.00;;;-19.30
74533;BMP180;63012;51.096;-115.366;2022-12-18T08:46:25;87131.60;;;-19.30
74533;BMP180;63012;51.096;-115.366;2022-12-18T08:48:54;87139.20;;;-19.30
74533;BMP180;63012;51.096;-115.366;2022-12-18T08:51:22;87134.20;;;-19.36
74533;BMP180;63012;51.096;-115.366;2022-12-18T08:53:50;87133.60;;;-19.38
74533;BMP180;63012;51.096;-115.366;2022-12-18T08:56:17;87136.40;;;-19.40
74533;BMP180;63012;51.096;-115.366;2022-12-18T08:58:44;87130.20;;;-19.40
74533;BMP180;63012;51.096;-115.366;2022-12-18T09:01:13;87132.80;;;-19.40
74533;BMP180;63012;51.096;-115.366;2022-12-18T09:03:40;87141.20;;;-19.40
74533;BMP180;63012;51.096;-115.366;2022-12-18T09:06:07;87150.80;;;-19.40
74533;BMP180;63012;51.096;-115.366;2022-12-18T09:08:35;87146.80;;;-19.42
74533;BMP180;63012;51.096;-115.366;2022-12-18T09:11:15;87150.00;;;-19.50
74533;BMP180;63012;51.096;-115.366;2022-12-18T09:13:45;87152.20;;;-19.50
74533;BMP180;63012;51.096;-115.366;2022-12-18T09:16:12;87157.20;;;-19.50
74533;BMP180;63012;51.096;-115.366;2022-12-18T09:18:39;87153.60;;;-19.52
74533;BMP180;63012;51.096;-115.366;2022-12-18T09:21:19;87157.60;;;-19.56
74533;BMP180;63012;51.096;-115.366;2022-12-18T09:23:52;87165.40;;;-19.56
74533;BMP180;63012;51.096;-115.366;2022-12-18T09:26:23;87156.00;;;-19.58
74533;BMP180;63012;51.096;-115.366;2022-12-18T09:28:51;87164.60;;;-19.60
74533;BMP180;63012;51.096;-115.366;2022-12-18T09:31:21;87163.40;;;-19.62
74533;BMP180;63012;51.096;-115.366;2022-12-18T09:33:48;87160.00;;;-19.68
74533;BMP180;63012;51.096;-115.366;2022-12-18T09:36:18;87162.80;;;-19.70
74533;BMP180;63012;51.096;-115.366;2022-12-18T09:38:45;87168.20;;;-19.68
74533;BMP180;63012;51.096;-115.366;2022-12-18T09:41:53;87153.60;;;-19.70
74533;BMP180;63012;51.096;-115.366;2022-12-18T09:44:30;87160.40;;;-19.68
74533;BMP180;63012;51.096;-115.366;2022-12-18T09:47:27;87163.40;;;-19.68
74533;BMP180;63012;51.096;-115.366;2022-12-18T09:50:26;87165.60;;;-19.70
74533;BMP180;63012;51.096;-115.366;2022-12-18T09:52:59;87165.80;;;-19.70
74533;BMP180;63012;51.096;-115.366;2022-12-18T09:55:42;87167.60;;;-19.70
74533;BMP180;63012;51.096;-115.366;2022-12-18T09:58:41;87173.80;;;-19.70
74533;BMP180;63012;51.096;-115.366;2022-12-18T10:01:21;87170.00;;;-19.70
74533;BMP180;63012;51.096;-115.366;2022-12-18T10:03:49;87176.60;;;-19.70
74533;BMP180;63012;51.096;-115.366;2022-12-18T10:12:45;87183.60;;;-19.70
74533;BMP180;63012;51.096;-115.366;2022-12-18T10:15:46;87187.40;;;-19.80
74533;BMP180;63012;51.096;-115.366;2022-12-18T10:19:00;87187.40;;;-19.80
74533;BMP180;63012;51.096;-115.366;2022-12-18T10:27:31;87193.80;;;-19.90
74533;BMP180;63012;51.096;-115.366;2022-12-18T10:30:00;87181.80;;;-19.90
74533;BMP180;63012;51.096;-115.366;2022-12-18T10:32:30;87207.40;;;-19.90
74533;BMP180;63012;51.096;-115.366;2022-12-18T10:34:58;87194.60;;;-19.92
74533;BMP180;63012;51.096;-115.366;2022-12-18T10:37:29;87202.60;;;-19.94
74533;BMP180;63012;51.096;-115.366;2022-12-18T10:40:14;87205.80;;;-19.94
74533;BMP180;63012;51.096;-115.366;2022-12-18T10:42:42;87202.80;;;-19.98
74533;BMP180;63012;51.096;-115.366;2022-12-18T10:45:16;87210.80;;;-19.96
74533;BMP180;63012;51.096;-115.366;2022-12-18T10:47:49;87211.20;;;-20.00
74533;BMP180;63012;51.096;-115.366;2022-12-18T10:50:47;87206.00;;;-20.00
74533;BMP180;63012;51.096;-115.366;2022-12-18T10:53:22;87202.80;;;-20.00
74533;BMP180;63012;51.096;-115.366;2022-12-18T10:55:54;87197.20;;;-20.08
74533;BMP180;63012;51.096;-115.366;2022-12-18T10:58:27;87210.00;;;-20.10
74533;BMP180;63012;51.096;-115.366;2022-12-18T11:01:15;87197.80;;;-20.10
74533;BMP180;63012;51.096;-115.366;2022-12-18T11:06:24;87208.40;;;-20.16
74533;BMP180;63012;51.096;-115.366;2022-12-18T11:09:31;87206.60;;;-20.16
74533;BMP180;63012;51.096;-115.366;2022-12-18T11:14:48;87216.20;;;-20.18
74533;BMP180;63012;51.096;-115.366;2022-12-18T11:17:31;87213.40;;;-20.20
74533;BMP180;63012;51.096;-115.366;2022-12-18T11:20:06;87213.80;;;-20.20
74533;BMP180;63012;51.096;-115.366;2022-12-18T11:22:37;87212.80;;;-20.24
74533;BMP180;63012;51.096;-115.366;2022-12-18T11:28:25;87203.20;;;-20.30
74533;BMP180;63012;51.096;-115.366;2022-12-18T11:31:29;87216.20;;;-20.30
74533;BMP180;63012;51.096;-115.366;2022-12-18T11:34:12;87204.40;;;-20.30
74533;BMP180;63012;51.096;-115.366;2022-12-18T11:36:46;87212.20;;;-20.30
74533;BMP180;63012;51.096;-115.366;2022-12-18T11:39:40;87206.60;;;-20.30
74533;BMP180;63012;51.096;-115.366;2022-12-18T11:48:02;87205.00;;;-20.40
74533;BMP180;63012;51.096;-115.366;2022-12-18T11:50:56;87208.80;;;-20.40
74533;BMP180;63012;51.096;-115.366;2022-12-18T11:53:26;87201.80;;;-20.40
74533;BMP180;63012;51.096;-115.366;2022-12-18T11:59:38;87200.80;;;-20.40
74533;BMP180;63012;51.096;-115.366;2022-12-18T12:02:26;87203.60;;;-20.40
74533;BMP180;63012;51.096;-115.366;2022-12-18T12:05:02;87207.40;;;-20.40
74533;BMP180;63012;51.096;-115.366;2022-12-18T12:37:59;87203.80;;;-20.40
74533;BMP180;63012;51.096;-115.366;2022-12-18T12:41:17;87207.60;;;-20.40
74533;BMP180;63012;51.096;-115.366;2022-12-18T12:43:39;87199.60;;;-20.40
74533;BMP180;63012;51.096;-115.366;2022-12-18T12:46:14;87203.00;;;-20.40
74533;BMP180;63012;51.096;-115.366;2022-12-18T12:48:54;87199.60;;;-20.46
74533;BMP180;63012;51.096;-115.366;2022-12-18T12:51:35;87212.00;;;-20.50
74533;BMP180;63012;51.096;-115.366;2022-12-18T12:54:14;87212.00;;;-20.50
74533;BMP180;63012;51.096;-115.366;2022-12-18T12:57:09;87206.20;;;-20.44
74533;BMP180;63012;51.096;-115.366;2022-12-18T12:59:58;87211.00;;;-20.50
74533;BMP180;63012;51.096;-115.366;2022-12-18T13:08:28;87200.00;;;-20.50
74533;BMP180;63012;51.096;-115.366;2022-12-18T13:10:58;87214.40;;;-20.52
74533;BMP180;63012;51.096;-115.366;2022-12-18T13:13:56;87221.60;;;-20.50
74533;BMP180;63012;51.096;-115.366;2022-12-18T13:16:25;87213.20;;;-20.60
74533;BMP180;63012;51.096;-115.366;2022-12-18T13:18:58;87217.20;;;-20.56
74533;BMP180;63012;51.096;-115.366;2022-12-18T13:21:33;87215.40;;;-20.58
74533;BMP180;63012;51.096;-115.366;2022-12-18T13:24:26;87208.40;;;-20.60
74533;BMP180;63012;51.096;-115.366;2022-12-18T13:26:54;87220.60;;;-20.60
74533;BMP180;63012;51.096;-115.366;2022-12-18T13:29:46;87227.60;;;-20.66
74533;BMP180;63012;51.096;-115.366;2022-12-18T13:32:26;87225.80;;;-20.60
74533;BMP180;63012;51.096;-115.366;2022-12-18T13:37:53;87235.80;;;-20.70
74533;BMP180;63012;51.096;-115.366;2022-12-18T13:44:10;87235.80;;;-20.70
74533;BMP180;63012;51.096;-115.366;2022-12-18T13:46:48;87227.60;;;-20.70
74533;BMP180;63012;51.096;-115.366;2022-12-18T13:49:40;87236.40;;;-20.70
74533;BMP180;63012;51.096;-115.366;2022-12-18T13:52:35;87226.60;;;-20.70
74533;BMP180;63012;51.096;-115.366;2022-12-18T13:55:14;87238.20;;;-20.76
74533;BMP180;63012;51.096;-115.366;2022-12-18T13:57:43;87242.40;;;-20.80
74533;BMP180;63012;51.096;-115.366;2022-12-18T14:00:31;87244.20;;;-20.80
74533;BMP180;63012;51.096;-115.366;2022-12-18T14:02:59;87228.00;;;-20.80
74533;BMP180;63012;51.096;-115.366;2022-12-18T14:05:33;87232.20;;;-20.82
74533;BMP180;63012;51.096;-115.366;2022-12-18T14:08:11;87239.80;;;-20.88
74533;BMP180;63012;51.096;-115.366;2022-12-18T14:10:49;87229.60;;;-20.90
74533;BMP180;63012;51.096;-115.366;2022-12-18T14:13:43;87245.40;;;-20.90
74533;BMP180;63012;51.096;-115.366;2022-12-18T14:16:15;87246.40;;;-20.96
74533;BMP180;63012;51.096;-115.366;2022-12-18T14:18:58;87260.20;;;-21.00
74533;BMP180;63012;51.096;-115.366;2022-12-18T14:21:32;87244.40;;;-20.98
74533;BMP180;63012;51.096;-115.366;2022-12-18T14:24:27;87258.20;;;-21.00
74533;BMP180;63012;51.096;-115.366;2022-12-18T14:27:24;87248.00;;;-21.00
74533;BMP180;63012;51.096;-115.366;2022-12-18T14:29:51;87256.40;;;-21.00
74533;BMP180;63012;51.096;-115.366;2022-12-18T14:32:20;87274.60;;;-21.00
74533;BMP180;63012;51.096;-115.366;2022-12-18T14:34:50;87267.60;;;-21.00
74533;BMP180;63012;51.096;-115.366;2022-12-18T14:37:23;87266.40;;;-21.00
74533;BMP180;63012;51.096;-115.366;2022-12-18T14:40:00;87261.60;;;-21.00
74533;BMP180;63012;51.096;-115.366;2022-12-18T14:42:29;87254.40;;;-21.00
74533;BMP180;63012;51.096;-115.366;2022-12-18T14:45:34;87268.20;;;-21.08
74533;BMP180;63012;51.096;-115.366;2022-12-18T14:48:53;87268.00;;;-21.10
74533;BMP180;63012;51.096;-115.366;2022-12-18T14:51:06;87269.00;;;-21.14
74533;BMP180;63012;51.096;-115.366;2022-12-18T14:56:29;87275.60;;;-21.26
74533;BMP180;63012;51.096;-115.366;2022-12-18T14:59:00;87280.60;;;-21.30
74533;BMP180;63012;51.096;-115.366;2022-12-18T15:01:37;87277.40;;;-21.30
74533;BMP180;63012;51.096;-115.366;2022-12-18T15:09:31;87276.60;;;-21.36
74533;BMP180;63012;51.096;-115.366;2022-12-18T15:12:00;87286.40;;;-21.36
74533;BMP180;63012;51.096;-115.366;2022-12-18T15:14:34;87281.00;;;-21.32
74533;BMP180;63012;51.096;-115.366;2022-12-18T15:17:15;87271.60;;;-21.40
74533;BMP180;63012;51.096;-115.366;2022-12-18T15:19:45;87276.40;;;-21.40
74533;BMP180;63012;51.096;-115.366;2022-12-18T15:22:27;87280.60;;;-21.40
74533;BMP180;63012;51.096;-115.366;2022-12-18T15:24:57;87271.80;;;-21.40
74533;BMP180;63012;51.096;-115.366;2022-12-18T15:27:32;87279.40;;;-21.40
74533;BMP180;63012;51.096;-115.366;2022-12-18T15:30:18;87287.60;;;-21.40
74533;BMP180;63012;51.096;-115.366;2022-12-18T15:32:46;87286.80;;;-21.40
74533;BMP180;63012;51.096;-115.366;2022-12-18T15:35:25;87289.60;;;-21.40
74533;BMP180;63012;51.096;-115.366;2022-12-18T15:37:52;87300.00;;;-21.40
74533;BMP180;63012;51.096;-115.366;2022-12-18T15:40:23;87302.80;;;-21.38
74533;BMP180;63012;51.096;-115.366;2022-12-18T15:42:54;87294.40;;;-21.40